sensor_id;sensor_type;location;lat;lon;timestamp;temperature;humidity
74934;DHT22;63499;53.232;7.492;2023-03-12T00:00:59;1.10;99.90
74934;DHT22;63499;53.232;7.492;2023-03-12T00:03:26;1.00;99.90
74934;DHT22;63499;53.232;7.492;2023-03-12T00:05:52;1.00;99.90
74934;DHT22;63499;53.232;7.492;2023-03-12T00:08:18;1.00;99.90
74934;DHT22;63499;53.232;7.492;2023-03-12T00:10:44;1.00;99.90
74934;DHT22;63499;53.232;7.492;2023-03-12T00:13:11;1.00;99.90
74934;DHT22;63499;53.232;7.492;2023-03-12T00:15:37;1.00;99.90
74934;DHT22;63499;53.232;7.492;2023-03-12T00:18:04;1.00;99.90
74934;DHT22;63499;53.232;7.492;2023-03-12T00:20:30;0.90;99.90
74934;DHT22;63499;53.232;7.492;2023-03-12T00:22:56;0.90;99.90
74934;DHT22;63499;53.232;7.492;2023-03-12T00:25:23;0.90;99.90
74934;DHT22;63499;53.232;7.492;2023-03-12T00:27:49;0.90;99.90
74934;DHT22;63499;53.232;7.492;2023-03-12T00:30:15;0.80;99.90
74934;DHT22;63499;53.232;7.492;2023-03-12T00:32:41;0.70;99.90
74934;DHT22;63499;53.232;7.492;2023-03-12T00:35:07;0.60;99.90
74934;DHT22;63499;53.232;7.492;2023-03-12T00:37:35;0.60;99.90
74934;DHT22;63499;53.232;7.492;2023-03-12T00:40:01;0.60;99.90
74934;DHT22;63499;53.232;7.492;2023-03-12T00:42:30;0.50;99.90
74934;DHT22;63499;53.232;7.492;2023-03-12T00:44:56;0.50;99.90
74934;DHT22;63499;53.232;7.492;2023-03-12T00:47:22;0.40;99.90
74934;DHT22;63499;53.232;7.492;2023-03-12T00:49:48;0.40;99.90
74934;DHT22;63499;53.232;7.492;2023-03-12T00:52:15;0.40;99.90
74934;DHT22;63499;53.232;7.492;2023-03-12T00:54:41;0.30;99.90
74934;DHT22;63499;53.232;7.492;2023-03-12T00:57:07;0.30;99.90
74934;DHT22;63499;53.232;7.492;2023-03-12T00:59:34;0.30;99.90
74934;DHT22;63499;53.232;7.492;2023-03-12T01:02:01;0.30;99.90
74934;DHT22;63499;53.232;7.492;2023-03-12T01:04:27;0.20;99.90
74934;DHT22;63499;53.232;7.492;2023-03-12T01:06:53;0.20;99.90
74934;DHT22;63499;53.232;7.492;2023-03-12T01:09:20;0.20;99.90
74934;DHT22;63499;53.232;7.492;2023-03-12T01:11:46;0.20;99.90
74934;DHT22;63499;53.232;7.492;2023-03-12T01:14:12;0.10;99.90
74934;DHT22;63499;53.232;7.492;2023-03-12T01:16:38;0.10;99.90
74934;DHT22;63499;53.232;7.492;2023-03-12T01:19:04;0.10;99.90
74934;DHT22;63499;53.232;7.492;2023-03-12T01:21:30;0.10;99.90
74934;DHT22;63499;53.232;7.492;2023-03-12T01:23:57;0.20;99.90
74934;DHT22;63499;53.232;7.492;2023-03-12T01:26:23;0.20;99.90
74934;DHT22;63499;53.232;7.492;2023-03-12T01:28:50;0.20;99.90
74934;DHT22;63499;53.232;7.492;2023-03-12T01:31:17;0.20;99.90
74934;DHT22;63499;53.232;7.492;2023-03-12T01:33:44;0.20;99.90
74934;DHT22;63499;53.232;7.492;2023-03-12T01:36:18;0.30;99.90
74934;DHT22;63499;53.232;7.492;2023-03-12T01:38:44;0.30;99.90
74934;DHT22;63499;53.232;7.492;2023-03-12T01:41:11;0.20;99.90
74934;DHT22;63499;53.232;7.492;2023-03-12T01:43:37;0.20;99.90
74934;DHT22;63499;53.232;7.492;2023-03-12T01:48:33;0.20;99.90
74934;DHT22;63499;53.232;7.492;2023-03-12T01:51:01;0.20;99.90
74934;DHT22;63499;53.232;7.492;2023-03-12T01:53:28;0.20;99.90
74934;DHT22;63499;53.232;7.492;2023-03-12T01:55:56;0.20;99.90
74934;DHT22;63499;53.232;7.492;2023-03-12T01:58:23;0.10;99.90
74934;DHT22;63499;53.232;7.492;2023-03-12T02:00:50;0.10;99.90
74934;DHT22;63499;53.232;7.492;2023-03-12T02:03:17;0.10;99.90
74934;DHT22;63499;53.232;7.492;2023-03-12T02:05:54;0.10;99.90
74934;DHT22;63499;53.232;7.492;2023-03-12T02:08:21;0.10;99.90
74934;DHT22;63499;53.232;7.492;2023-03-12T02:10:48;0.10;99.90
74934;DHT22;63499;53.232;7.492;2023-03-12T02:13:20;0.10;99.90
74934;DHT22;63499;53.232;7.492;2023-03-12T02:15:51;0.10;99.90
74934;DHT22;63499;53.232;7.492;2023-03-12T02:18:17;0.10;99.90
74934;DHT22;63499;53.232;7.492;2023-03-12T02:25:59;0.10;99.90
74934;DHT22;63499;53.232;7.492;2023-03-12T02:28:27;0.10;99.90
74934;DHT22;63499;53.232;7.492;2023-03-12T02:30:56;0.10;99.90
74934;DHT22;63499;53.232;7.492;2023-03-12T02:33:22;0.10;99.90
74934;DHT22;63499;53.232;7.492;2023-03-12T02:35:48;0.00;99.90
74934;DHT22;63499;53.232;7.492;2023-03-12T02:41:33;0.00;99.90
74934;DHT22;63499;53.232;7.492;2023-03-12T02:43:59;0.10;99.90
74934;DHT22;63499;53.232;7.492;2023-03-12T02:46:34;0.10;99.90
74934;DHT22;63499;53.232;7.492;2023-03-12T02:49:02;0.10;99.90
74934;DHT22;63499;53.232;7.492;2023-03-12T02:51:29;0.10;99.90
74934;DHT22;63499;53.232;7.492;2023-03-12T02:53:55;0.10;99.90
74934;DHT22;63499;53.232;7.492;2023-03-12T02:56:22;0.10;99.90
74934;DHT22;63499;53.232;7.492;2023-03-12T02:58:49;0.10;99.90
74934;DHT22;63499;53.232;7.492;2023-03-12T03:01:15;0.10;99.90
74934;DHT22;63499;53.232;7.492;2023-03-12T03:03:41;0.00;99.90
74934;DHT22;63499;53.232;7.492;2023-03-12T03:06:08;0.00;99.90
74934;DHT22;63499;53.232;7.492;2023-03-12T03:08:34;0.00;99.90
74934;DHT22;63499;53.232;7.492;2023-03-12T03:11:00;0.00;99.90
74934;DHT22;63499;53.232;7.492;2023-03-12T03:13:28;0.00;99.90
74934;DHT22;63499;53.232;7.492;2023-03-12T03:15:54;0.00;99.90
74934;DHT22;63499;53.232;7.492;2023-03-12T03:18:23;0.00;99.90
74934;DHT22;63499;53.232;7.492;2023-03-12T03:20:54;0.10;99.90
74934;DHT22;63499;53.232;7.492;2023-03-12T03:23:21;0.10;99.90
74934;DHT22;63499;53.232;7.492;2023-03-12T03:25:47;0.10;99.90
74934;DHT22;63499;53.232;7.492;2023-03-12T03:28:13;0.10;99.90
74934;DHT22;63499;53.232;7.492;2023-03-12T03:30:39;0.10;99.90
74934;DHT22;63499;53.232;7.492;2023-03-12T03:33:06;0.10;99.90
74934;DHT22;63499;53.232;7.492;2023-03-12T03:35:33;0.10;99.90
74934;DHT22;63499;53.232;7.492;2023-03-12T03:37:59;0.10;99.90
74934;DHT22;63499;53.232;7.492;2023-03-12T03:40:25;0.10;99.90
74934;DHT22;63499;53.232;7.492;2023-03-12T03:42:51;0.10;99.90
74934;DHT22;63499;53.232;7.492;2023-03-12T03:45:17;0.10;99.90
74934;DHT22;63499;53.232;7.492;2023-03-12T03:47:44;0.10;99.90
74934;DHT22;63499;53.232;7.492;2023-03-12T03:50:11;0.10;99.90
74934;DHT22;63499;53.232;7.492;2023-03-12T03:52:38;0.20;99.90
74934;DHT22;63499;53.232;7.492;2023-03-12T03:55:04;0.10;99.90
74934;DHT22;63499;53.232;7.492;2023-03-12T03:57:31;0.20;99.90
74934;DHT22;63499;53.232;7.492;2023-03-12T03:59:57;0.10;99.90
74934;DHT22;63499;53.232;7.492;2023-03-12T04:02:24;0.10;99.90
74934;DHT22;63499;53.232;7.492;2023-03-12T04:04:50;0.10;99.90
74934;DHT22;63499;53.232;7.492;2023-03-12T04:07:16;0.10;99.90
74934;DHT22;63499;53.232;7.492;2023-03-12T04:09:42;0.10;99.90
74934;DHT22;63499;53.232;7.492;2023-03-12T04:12:09;0.10;99.90
74934;DHT22;63499;53.232;7.492;2023-03-12T04:14:40;0.10;99.90
74934;DHT22;63499;53.232;7.492;2023-03-12T04:17:07;0.10;99.90
74934;DHT22;63499;53.232;7.492;2023-03-12T04:19:33;0.20;99.90
74934;DHT22;63499;53.232;7.492;2023-03-12T04:22:00;0.20;99.90
74934;DHT22;63499;53.232;7.492;2023-03-12T04:24:27;0.20;99.90
74934;DHT22;63499;53.232;7.492;2023-03-12T04:26:53;0.20;99.90
74934;DHT22;63499;53.232;7.492;2023-03-12T04:29:19;0.20;99.90
74934;DHT22;63499;53.232;7.492;2023-03-12T04:31:45;0.20;99.90
74934;DHT22;63499;53.232;7.492;2023-03-12T04:34:19;0.20;99.90
74934;DHT22;63499;53.232;7.492;2023-03-12T04:36:48;0.20;99.90
74934;DHT22;63499;53.232;7.492;2023-03-12T04:39:17;0.20;99.90
74934;DHT22;63499;53.232;7.492;2023-03-12T04:41:45;0.10;99.90
74934;DHT22;63499;53.232;7.492;2023-03-12T04:44:14;0.20;99.90
74934;DHT22;63499;53.232;7.492;2023-03-12T04:46:41;0.20;99.90
74934;DHT22;63499;53.232;7.492;2023-03-12T04:49:08;0.10;99.90
74934;DHT22;63499;53.232;7.492;2023-03-12T04:51:36;0.20;99.90
74934;DHT22;63499;53.232;7.492;2023-03-12T04:54:03;0.10;99.90
74934;DHT22;63499;53.232;7.492;2023-03-12T04:56:29;0.10;99.90
74934;DHT22;63499;53.232;7.492;2023-03-12T04:58:56;0.10;99.90
74934;DHT22;63499;53.232;7.492;2023-03-12T05:01:33;0.20;99.90
74934;DHT22;63499;53.232;7.492;2023-03-12T05:04:04;0.20;99.90
74934;DHT22;63499;53.232;7.492;2023-03-12T05:06:31;0.20;99.90
74934;DHT22;63499;53.232;7.492;2023-03-12T05:08:57;0.20;99.90
74934;DHT22;63499;53.232;7.492;2023-03-12T05:11:23;0.20;99.90
74934;DHT22;63499;53.232;7.492;2023-03-12T05:13:50;0.20;99.90
74934;DHT22;63499;53.232;7.492;2023-03-12T05:16:16;0.20;99.90
74934;DHT22;63499;53.232;7.492;2023-03-12T05:18:42;0.20;99.90
74934;DHT22;63499;53.232;7.492;2023-03-12T05:21:13;0.20;99.90
74934;DHT22;63499;53.232;7.492;2023-03-12T05:23:39;0.20;99.90
74934;DHT22;63499;53.232;7.492;2023-03-12T05:26:15;0.20;99.90
74934;DHT22;63499;53.232;7.492;2023-03-12T05:28:41;0.20;99.90
74934;DHT22;63499;53.232;7.492;2023-03-12T05:31:08;0.20;99.90
74934;DHT22;63499;53.232;7.492;2023-03-12T05:33:35;0.20;99.90
74934;DHT22;63499;53.232;7.492;2023-03-12T05:36:02;0.20;99.90
74934;DHT22;63499;53.232;7.492;2023-03-12T05:38:28;0.20;99.90
74934;DHT22;63499;53.232;7.492;2023-03-12T05:40:55;0.20;99.90
74934;DHT22;63499;53.232;7.492;2023-03-12T05:43:22;0.20;99.90
74934;DHT22;63499;53.232;7.492;2023-03-12T05:45:49;0.20;99.90
74934;DHT22;63499;53.232;7.492;2023-03-12T05:48:15;0.20;99.90
74934;DHT22;63499;53.232;7.492;2023-03-12T05:50:42;0.10;99.90
74934;DHT22;63499;53.232;7.492;2023-03-12T05:53:08;0.10;99.90
74934;DHT22;63499;53.232;7.492;2023-03-12T05:55:34;0.10;99.90
74934;DHT22;63499;53.232;7.492;2023-03-12T05:58:02;0.20;99.90
74934;DHT22;63499;53.232;7.492;2023-03-12T06:00:28;0.10;99.90
74934;DHT22;63499;53.232;7.492;2023-03-12T06:02:56;0.20;99.90
74934;DHT22;63499;53.232;7.492;2023-03-12T06:05:22;0.10;99.90
74934;DHT22;63499;53.232;7.492;2023-03-12T06:07:48;0.20;99.90
74934;DHT22;63499;53.232;7.492;2023-03-12T06:10:14;0.20;99.90
74934;DHT22;63499;53.232;7.492;2023-03-12T06:12:40;0.20;99.90
74934;DHT22;63499;53.232;7.492;2023-03-12T06:15:07;0.20;99.90
74934;DHT22;63499;53.232;7.492;2023-03-12T06:17:33;0.20;99.90
74934;DHT22;63499;53.232;7.492;2023-03-12T06:19:59;0.20;99.90
74934;DHT22;63499;53.232;7.492;2023-03-12T06:22:25;0.30;99.90
74934;DHT22;63499;53.232;7.492;2023-03-12T06:24:53;0.30;99.90
74934;DHT22;63499;53.232;7.492;2023-03-12T06:27:20;0.30;99.90
74934;DHT22;63499;53.232;7.492;2023-03-12T06:29:46;0.40;99.90
74934;DHT22;63499;53.232;7.492;2023-03-12T06:32:12;0.40;99.90
74934;DHT22;63499;53.232;7.492;2023-03-12T06:34:38;0.50;99.90
74934;DHT22;63499;53.232;7.492;2023-03-12T06:37:04;0.50;99.90
74934;DHT22;63499;53.232;7.492;2023-03-12T06:39:30;0.50;99.90
74934;DHT22;63499;53.232;7.492;2023-03-12T06:41:56;0.50;99.90
74934;DHT22;63499;53.232;7.492;2023-03-12T06:44:23;0.60;99.90
74934;DHT22;63499;53.232;7.492;2023-03-12T06:46:49;0.60;99.90
74934;DHT22;63499;53.232;7.492;2023-03-12T06:49:15;0.60;99.90
74934;DHT22;63499;53.232;7.492;2023-03-12T06:51:41;0.60;99.90
74934;DHT22;63499;53.232;7.492;2023-03-12T06:54:07;0.60;99.90
74934;DHT22;63499;53.232;7.492;2023-03-12T06:56:33;0.60;99.90
74934;DHT22;63499;53.232;7.492;2023-03-12T06:58:59;0.60;99.90
74934;DHT22;63499;53.232;7.492;2023-03-12T07:01:25;0.60;99.90
74934;DHT22;63499;53.232;7.492;2023-03-12T07:03:52;0.60;99.90
74934;DHT22;63499;53.232;7.492;2023-03-12T07:06:19;0.60;99.90
74934;DHT22;63499;53.232;7.492;2023-03-12T07:08:45;0.60;99.90
74934;DHT22;63499;53.232;7.492;2023-03-12T07:11:12;0.60;99.90
74934;DHT22;63499;53.232;7.492;2023-03-12T07:13:38;0.60;99.90
74934;DHT22;63499;53.232;7.492;2023-03-12T07:16:04;0.60;99.90
74934;DHT22;63499;53.232;7.492;2023-03-12T07:18:31;0.60;99.90
74934;DHT22;63499;53.232;7.492;2023-03-12T07:20:57;0.60;99.90
74934;DHT22;63499;53.232;7.492;2023-03-12T07:23:24;0.70;99.90
74934;DHT22;63499;53.232;7.492;2023-03-12T07:25:51;0.70;99.90
74934;DHT22;63499;53.232;7.492;2023-03-12T07:28:17;0.70;99.90
74934;DHT22;63499;53.232;7.492;2023-03-12T07:30:43;0.80;99.90
74934;DHT22;63499;53.232;7.492;2023-03-12T07:33:16;0.80;99.90
74934;DHT22;63499;53.232;7.492;2023-03-12T07:35:42;0.90;99.90
74934;DHT22;63499;53.232;7.492;2023-03-12T07:38:08;0.90;99.90
74934;DHT22;63499;53.232;7.492;2023-03-12T07:40:34;1.00;99.90
74934;DHT22;63499;53.232;7.492;2023-03-12T07:43:01;1.00;99.90
74934;DHT22;63499;53.232;7.492;2023-03-12T07:45:30;1.00;99.90
74934;DHT22;63499;53.232;7.492;2023-03-12T07:47:56;1.10;99.90
74934;DHT22;63499;53.232;7.492;2023-03-12T07:50:22;1.20;99.90
74934;DHT22;63499;53.232;7.492;2023-03-12T07:52:49;1.20;99.90
74934;DHT22;63499;53.232;7.492;2023-03-12T07:55:15;1.30;99.90
74934;DHT22;63499;53.232;7.492;2023-03-12T07:57:41;1.30;99.90
74934;DHT22;63499;53.232;7.492;2023-03-12T08:00:07;1.30;99.90
74934;DHT22;63499;53.232;7.492;2023-03-12T08:02:38;1.30;99.90
74934;DHT22;63499;53.232;7.492;2023-03-12T08:05:04;1.30;99.90
74934;DHT22;63499;53.232;7.492;2023-03-12T08:07:31;1.40;99.90
74934;DHT22;63499;53.232;7.492;2023-03-12T08:09:58;1.40;99.90
74934;DHT22;63499;53.232;7.492;2023-03-12T08:12:24;1.50;99.90
74934;DHT22;63499;53.232;7.492;2023-03-12T08:14:50;1.50;99.90
74934;DHT22;63499;53.232;7.492;2023-03-12T08:17:16;1.50;99.90
74934;DHT22;63499;53.232;7.492;2023-03-12T08:19:43;1.60;99.90
74934;DHT22;63499;53.232;7.492;2023-03-12T08:22:09;1.60;99.90
74934;DHT22;63499;53.232;7.492;2023-03-12T08:24:35;1.60;99.90
74934;DHT22;63499;53.232;7.492;2023-03-12T08:27:01;1.70;99.90
74934;DHT22;63499;53.232;7.492;2023-03-12T08:29:33;1.70;99.90
74934;DHT22;63499;53.232;7.492;2023-03-12T08:32:00;1.70;99.90
74934;DHT22;63499;53.232;7.492;2023-03-12T08:34:26;1.80;99.90
74934;DHT22;63499;53.232;7.492;2023-03-12T08:36:52;1.80;99.90
74934;DHT22;63499;53.232;7.492;2023-03-12T08:39:18;1.90;99.90
74934;DHT22;63499;53.232;7.492;2023-03-12T08:41:44;1.90;99.90
74934;DHT22;63499;53.232;7.492;2023-03-12T08:44:10;1.90;99.90
74934;DHT22;63499;53.232;7.492;2023-03-12T08:46:37;1.90;99.90
74934;DHT22;63499;53.232;7.492;2023-03-12T08:49:04;1.90;99.90
74934;DHT22;63499;53.232;7.492;2023-03-12T08:51:30;1.90;99.90
74934;DHT22;63499;53.232;7.492;2023-03-12T08:53:56;2.00;99.90
74934;DHT22;63499;53.232;7.492;2023-03-12T08:56:23;2.00;99.90
74934;DHT22;63499;53.232;7.492;2023-03-12T08:58:49;2.00;99.90
74934;DHT22;63499;53.232;7.492;2023-03-12T09:01:16;2.10;99.90
74934;DHT22;63499;53.232;7.492;2023-03-12T09:03:42;2.10;99.90
74934;DHT22;63499;53.232;7.492;2023-03-12T09:06:10;2.20;99.90
74934;DHT22;63499;53.232;7.492;2023-03-12T09:08:39;2.20;99.90
74934;DHT22;63499;53.232;7.492;2023-03-12T09:11:07;2.30;99.90
74934;DHT22;63499;53.232;7.492;2023-03-12T09:13:33;2.30;99.90
74934;DHT22;63499;53.232;7.492;2023-03-12T09:16:02;2.40;99.90
74934;DHT22;63499;53.232;7.492;2023-03-12T09:18:30;2.50;99.90
74934;DHT22;63499;53.232;7.492;2023-03-12T09:20:56;2.50;99.90
74934;DHT22;63499;53.232;7.492;2023-03-12T09:23:23;2.60;99.90
74934;DHT22;63499;53.232;7.492;2023-03-12T09:25:49;2.60;99.90
74934;DHT22;63499;53.232;7.492;2023-03-12T09:28:16;2.70;99.90
74934;DHT22;63499;53.232;7.492;2023-03-12T09:30:43;2.80;99.90
74934;DHT22;63499;53.232;7.492;2023-03-12T09:33:09;2.80;99.90
74934;DHT22;63499;53.232;7.492;2023-03-12T09:35:35;2.90;99.90
74934;DHT22;63499;53.232;7.492;2023-03-12T09:38:01;2.80;99.90
74934;DHT22;63499;53.232;7.492;2023-03-12T09:40:32;2.70;99.90
74934;DHT22;63499;53.232;7.492;2023-03-12T09:43:03;2.60;99.90
74934;DHT22;63499;53.232;7.492;2023-03-12T09:45:37;2.60;99.90
74934;DHT22;63499;53.232;7.492;2023-03-12T09:48:05;2.60;99.90
74934;DHT22;63499;53.232;7.492;2023-03-12T09:50:33;2.60;99.90
74934;DHT22;63499;53.232;7.492;2023-03-12T09:53:05;2.60;99.90
74934;DHT22;63499;53.232;7.492;2023-03-12T09:55:36;2.50;99.90
74934;DHT22;63499;53.232;7.492;2023-03-12T09:58:03;2.40;99.90
74934;DHT22;63499;53.232;7.492;2023-03-12T10:00:30;2.40;99.90
74934;DHT22;63499;53.232;7.492;2023-03-12T10:07:57;2.20;99.90
74934;DHT22;63499;53.232;7.492;2023-03-12T10:20:52;2.20;99.90
74934;DHT22;63499;53.232;7.492;2023-03-12T10:25:57;2.10;99.90
74934;DHT22;63499;53.232;7.492;2023-03-12T10:34:16;2.10;99.90
74934;DHT22;63499;53.232;7.492;2023-03-12T10:36:45;2.10;99.90
74934;DHT22;63499;53.232;7.492;2023-03-12T10:39:15;2.00;99.90
74934;DHT22;63499;53.232;7.492;2023-03-12T10:41:42;2.00;99.90
74934;DHT22;63499;53.232;7.492;2023-03-12T10:44:10;2.00;99.90
74934;DHT22;63499;53.232;7.492;2023-03-12T10:46:42;2.00;99.90
74934;DHT22;63499;53.232;7.492;2023-03-12T10:51:53;1.90;99.90
74934;DHT22;63499;53.232;7.492;2023-03-12T10:54:30;1.90;99.90
74934;DHT22;63499;53.232;7.492;2023-03-12T10:57:02;1.90;99.90
74934;DHT22;63499;53.232;7.492;2023-03-12T10:59:30;1.90;99.90
74934;DHT22;63499;53.232;7.492;2023-03-12T11:01:57;1.90;99.90
74934;DHT22;63499;53.232;7.492;2023-03-12T11:04:27;1.90;99.90
74934;DHT22;63499;53.232;7.492;2023-03-12T11:09:37;2.00;99.90
74934;DHT22;63499;53.232;7.492;2023-03-12T11:12:21;2.00;99.90
74934;DHT22;63499;53.232;7.492;2023-03-12T11:14:50;2.00;99.90
74934;DHT22;63499;53.232;7.492;2023-03-12T11:17:21;2.00;99.90
74934;DHT22;63499;53.232;7.492;2023-03-12T11:19:47;2.10;99.90
74934;DHT22;63499;53.232;7.492;2023-03-12T11:22:14;2.10;99.90
74934;DHT22;63499;53.232;7.492;2023-03-12T11:24:58;2.10;99.90
74934;DHT22;63499;53.232;7.492;2023-03-12T11:29:51;2.10;99.90
74934;DHT22;63499;53.232;7.492;2023-03-12T11:34:54;2.20;99.90
74934;DHT22;63499;53.232;7.492;2023-03-12T11:55:52;2.30;99.90
74934;DHT22;63499;53.232;7.492;2023-03-12T11:58:44;2.30;99.90
74934;DHT22;63499;53.232;7.492;2023-03-12T12:02:18;2.30;99.90
74934;DHT22;63499;53.232;7.492;2023-03-12T12:06:56;2.30;99.90
74934;DHT22;63499;53.232;7.492;2023-03-12T12:15:03;2.40;99.90
74934;DHT22;63499;53.232;7.492;2023-03-12T12:27:43;2.50;99.90
74934;DHT22;63499;53.232;7.492;2023-03-12T12:35:38;2.60;99.90
74934;DHT22;63499;53.232;7.492;2023-03-12T12:40:39;2.70;99.90
74934;DHT22;63499;53.232;7.492;2023-03-12T12:45:37;2.70;99.90
74934;DHT22;63499;53.232;7.492;2023-03-12T12:48:06;2.80;99.90
74934;DHT22;63499;53.232;7.492;2023-03-12T12:50:37;2.80;99.90
74934;DHT22;63499;53.232;7.492;2023-03-12T12:55:45;2.90;99.90
74934;DHT22;63499;53.232;7.492;2023-03-12T12:58:39;2.90;99.90
74934;DHT22;63499;53.232;7.492;2023-03-12T13:01:09;3.00;99.90
74934;DHT22;63499;53.232;7.492;2023-03-12T13:03:36;3.00;99.90
74934;DHT22;63499;53.232;7.492;2023-03-12T13:06:03;3.10;99.90
74934;DHT22;63499;53.232;7.492;2023-03-12T13:11:21;3.20;99.90
74934;DHT22;63499;53.232;7.492;2023-03-12T13:13:49;3.20;99.90
74934;DHT22;63499;53.232;7.492;2023-03-12T13:16:35;3.30;99.90
74934;DHT22;63499;53.232;7.492;2023-03-12T13:19:03;3.30;99.90
74934;DHT22;63499;53.232;7.492;2023-03-12T13:26:59;3.50;99.90
74934;DHT22;63499;53.232;7.492;2023-03-12T13:31:57;3.70;99.90
74934;DHT22;63499;53.232;7.492;2023-03-12T13:36:56;3.80;99.90
74934;DHT22;63499;53.232;7.492;2023-03-12T13:41:56;3.80;99.90
74934;DHT22;63499;53.232;7.492;2023-03-12T13:54:43;4.00;99.90
74934;DHT22;63499;53.232;7.492;2023-03-12T13:57:19;4.10;99.90
74934;DHT22;63499;53.232;7.492;2023-03-12T13:59:48;4.10;99.90
74934;DHT22;63499;53.232;7.492;2023-03-12T14:02:34;4.20;99.90
74934;DHT22;63499;53.232;7.492;2023-03-12T14:05:08;4.30;99.90
74934;DHT22;63499;53.232;7.492;2023-03-12T14:07:42;4.40;99.90
74934;DHT22;63499;53.232;7.492;2023-03-12T14:10:24;4.40;99.90
74934;DHT22;63499;53.232;7.492;2023-03-12T14:12:58;4.60;99.90
74934;DHT22;63499;53.232;7.492;2023-03-12T14:18:00;4.60;99.90
74934;DHT22;63499;53.232;7.492;2023-03-12T14:20:27;4.70;99.90
74934;DHT22;63499;53.232;7.492;2023-03-12T14:22:57;4.70;99.90
74934;DHT22;63499;53.232;7.492;2023-03-12T14:25:30;4.70;99.90
74934;DHT22;63499;53.232;7.492;2023-03-12T14:27:58;4.70;99.90
74934;DHT22;63499;53.232;7.492;2023-03-12T14:30:29;4.80;99.90
74934;DHT22;63499;53.232;7.492;2023-03-12T14:32:58;4.80;99.90
74934;DHT22;63499;53.232;7.492;2023-03-12T14:35:25;4.90;99.90
74934;DHT22;63499;53.232;7.492;2023-03-12T14:40:21;5.00;99.90
74934;DHT22;63499;53.232;7.492;2023-03-12T14:42:48;5.10;99.90
74934;DHT22;63499;53.232;7.492;2023-03-12T14:45:19;5.20;99.90
74934;DHT22;63499;53.232;7.492;2023-03-12T14:47:46;5.30;99.90
74934;DHT22;63499;53.232;7.492;2023-03-12T14:50:17;5.50;99.90
74934;DHT22;63499;53.232;7.492;2023-03-12T14:52:44;5.70;99.90
74934;DHT22;63499;53.232;7.492;2023-03-12T14:55:12;5.80;99.90
74934;DHT22;63499;53.232;7.492;2023-03-12T14:57:39;5.90;99.90
74934;DHT22;63499;53.232;7.492;2023-03-12T15:00:05;5.90;99.90
74934;DHT22;63499;53.232;7.492;2023-03-12T15:02:39;6.00;99.90
74934;DHT22;63499;53.232;7.492;2023-03-12T15:05:14;6.00;99.90
74934;DHT22;63499;53.232;7.492;2023-03-12T15:07:41;6.10;99.90
74934;DHT22;63499;53.232;7.492;2023-03-12T15:10:28;6.10;99.90
74934;DHT22;63499;53.232;7.492;2023-03-12T15:12:55;6.20;99.90
74934;DHT22;63499;53.232;7.492;2023-03-12T15:17:50;6.30;99.90
74934;DHT22;63499;53.232;7.492;2023-03-12T15:20:17;6.40;99.90
74934;DHT22;63499;53.232;7.492;2023-03-12T15:22:43;6.40;99.90
74934;DHT22;63499;53.232;7.492;2023-03-12T15:27:48;6.50;99.90
74934;DHT22;63499;53.232;7.492;2023-03-12T15:30:25;6.50;99.90
74934;DHT22;63499;53.232;7.492;2023-03-12T15:35:30;6.60;99.90
74934;DHT22;63499;53.232;7.492;2023-03-12T15:37:56;6.70;99.90
74934;DHT22;63499;53.232;7.492;2023-03-12T15:40:26;6.70;99.90
74934;DHT22;63499;53.232;7.492;2023-03-12T15:42:53;6.80;99.90
74934;DHT22;63499;53.232;7.492;2023-03-12T15:45:28;6.80;99.90
74934;DHT22;63499;53.232;7.492;2023-03-12T15:47:56;6.90;99.90
74934;DHT22;63499;53.232;7.492;2023-03-12T15:50:26;6.80;99.90
74934;DHT22;63499;53.232;7.492;2023-03-12T15:55:41;6.90;99.90
74934;DHT22;63499;53.232;7.492;2023-03-12T15:58:27;6.90;99.90
74934;DHT22;63499;53.232;7.492;2023-03-12T16:01:04;7.00;99.90
74934;DHT22;63499;53.232;7.492;2023-03-12T16:03:30;7.10;99.90
74934;DHT22;63499;53.232;7.492;2023-03-12T16:05:59;7.10;99.90
74934;DHT22;63499;53.232;7.492;2023-03-12T16:08:33;7.20;99.90
74934;DHT22;63499;53.232;7.492;2023-03-12T16:11:00;7.30;99.90
74934;DHT22;63499;53.232;7.492;2023-03-12T16:13:27;7.30;99.90
74934;DHT22;63499;53.232;7.492;2023-03-12T16:15:57;7.40;99.90
74934;DHT22;63499;53.232;7.492;2023-03-12T16:18:23;7.40;99.90
74934;DHT22;63499;53.232;7.492;2023-03-12T16:20:50;7.50;99.90
74934;DHT22;63499;53.232;7.492;2023-03-12T16:23:17;7.50;99.90
74934;DHT22;63499;53.232;7.492;2023-03-12T16:25:45;7.50;99.90
74934;DHT22;63499;53.232;7.492;2023-03-12T16:28:15;7.50;99.90
74934;DHT22;63499;53.232;7.492;2023-03-12T16:30:42;7.60;99.90
74934;DHT22;63499;53.232;7.492;2023-03-12T16:33:11;7.60;99.90
74934;DHT22;63499;53.232;7.492;2023-03-12T16:35:38;7.70;99.90
74934;DHT22;63499;53.232;7.492;2023-03-12T16:38:04;7.70;99.90
74934;DHT22;63499;53.232;7.492;2023-03-12T16:40:36;7.70;99.90
74934;DHT22;63499;53.232;7.492;2023-03-12T16:43:03;7.70;99.90
74934;DHT22;63499;53.232;7.492;2023-03-12T16:45:32;7.80;99.90
74934;DHT22;63499;53.232;7.492;2023-03-12T16:48:01;7.80;99.90
74934;DHT22;63499;53.232;7.492;2023-03-12T16:50:27;7.80;99.90
74934;DHT22;63499;53.232;7.492;2023-03-12T16:52:54;7.80;99.90
74934;DHT22;63499;53.232;7.492;2023-03-12T16:55:21;7.80;99.90
74934;DHT22;63499;53.232;7.492;2023-03-12T16:57:52;7.80;99.90
74934;DHT22;63499;53.232;7.492;2023-03-12T17:00:20;7.80;99.90
74934;DHT22;63499;53.232;7.492;2023-03-12T17:02:47;7.80;99.90
74934;DHT22;63499;53.232;7.492;2023-03-12T17:05:13;7.80;99.90
74934;DHT22;63499;53.232;7.492;2023-03-12T17:07:40;7.80;99.90
74934;DHT22;63499;53.232;7.492;2023-03-12T17:10:09;7.80;99.90
74934;DHT22;63499;53.232;7.492;2023-03-12T17:12:37;7.80;99.90
74934;DHT22;63499;53.232;7.492;2023-03-12T17:15:04;7.80;99.90
74934;DHT22;63499;53.232;7.492;2023-03-12T17:17:32;7.80;99.90
74934;DHT22;63499;53.232;7.492;2023-03-12T17:19:58;7.70;99.90
74934;DHT22;63499;53.232;7.492;2023-03-12T17:22:25;7.80;99.90
74934;DHT22;63499;53.232;7.492;2023-03-12T17:24:52;7.80;99.90
74934;DHT22;63499;53.232;7.492;2023-03-12T17:27:19;7.80;99.90
74934;DHT22;63499;53.232;7.492;2023-03-12T17:29:45;7.80;99.90
74934;DHT22;63499;53.232;7.492;2023-03-12T17:32:11;7.70;99.90
74934;DHT22;63499;53.232;7.492;2023-03-12T17:34:37;7.70;99.90
74934;DHT22;63499;53.232;7.492;2023-03-12T17:37:03;7.70;99.90
74934;DHT22;63499;53.232;7.492;2023-03-12T17:39:29;7.70;99.90
74934;DHT22;63499;53.232;7.492;2023-03-12T17:41:56;7.60;99.90
74934;DHT22;63499;53.232;7.492;2023-03-12T17:44:22;7.60;99.90
74934;DHT22;63499;53.232;7.492;2023-03-12T17:46:48;7.60;99.90
74934;DHT22;63499;53.232;7.492;2023-03-12T17:49:15;7.60;99.90
74934;DHT22;63499;53.232;7.492;2023-03-12T17:51:41;7.60;99.90
74934;DHT22;63499;53.232;7.492;2023-03-12T17:54:09;7.60;99.90
74934;DHT22;63499;53.232;7.492;2023-03-12T17:56:37;7.60;99.90
74934;DHT22;63499;53.232;7.492;2023-03-12T17:59:03;7.60;99.90
74934;DHT22;63499;53.232;7.492;2023-03-12T18:01:29;7.60;99.90
74934;DHT22;63499;53.232;7.492;2023-03-12T18:03:56;7.60;99.90
74934;DHT22;63499;53.232;7.492;2023-03-12T18:06:23;7.50;99.90